PIA489 OPKC-ENGM
Flight info
| Callsign | PIA489 |
|---|---|
| Flight time | N/A |
| Altitude | 33000 |
| Route | OPKC N0503F330 BADU1D BADUL J112 NH/N0501F340 P757 PG L124 SODOK T216 DAR DCT BUDED/N0486F360 DCT DASIS UR660 ERZ UW704 SONAD UL746 ODERO T86 MATEL T746 ARGES DCT KARIL DCT KENIN DCT LENOV N133 GOSAK/N0481F380 N133 POLON N983 AMROR/N0490F280 N983 ROE L617 SABAK L997 LUNIP LUNI4L ENGM |
| Aircraft | B773/H-L/L |
Departure
| Time | 2026-04-27 14:09 |
|---|---|
| Airport | Jinnah International Airport (OPKC) |
Arrival
| Time | N/A |
|---|---|
| Airport | Oslo-Gardermoen International Airport (ENGM) |
| Time | Latitude | Longitude | Altitude | Speed | Heading |
|---|---|---|---|---|---|
| 2026-04-27 13:42 | 24.90153 | 67.16509 | 102 ft | 0 kts | 84° |
| 2026-04-27 13:57 | 24.90153 | 67.16504 | 102 ft | 2 kts | 82° |
| 2026-04-27 13:57 | 24.90149 | 67.16483 | 103 ft | 3 kts | 70° |
| 2026-04-27 13:57 | 24.90142 | 67.16463 | 101 ft | 2 kts | 73° |
| 2026-04-27 13:58 | 24.90138 | 67.16448 | 102 ft | 3 kts | 63° |
| 2026-04-27 13:58 | 24.90128 | 67.16434 | 102 ft | 3 kts | 12° |
| 2026-04-27 13:58 | 24.90110 | 67.16435 | 100 ft | 3 kts | 341° |
| 2026-04-27 13:58 | 24.90095 | 67.16440 | 101 ft | 1 kts | 341° |
| 2026-04-27 13:59 | 24.90091 | 67.16442 | 100 ft | 0 kts | 341° |
| 2026-04-27 14:02 | 24.90103 | 67.16437 | 128 ft | 4 kts | 341° |
| 2026-04-27 14:02 | 24.90126 | 67.16429 | 103 ft | 4 kts | 342° |
| 2026-04-27 14:02 | 24.90150 | 67.16421 | 102 ft | 4 kts | 342° |
| 2026-04-27 14:03 | 24.90176 | 67.16412 | 104 ft | 4 kts | 343° |
| 2026-04-27 14:03 | 24.90205 | 67.16402 | 104 ft | 5 kts | 344° |
| 2026-04-27 14:03 | 24.90239 | 67.16392 | 104 ft | 6 kts | 345° |
| 2026-04-27 14:03 | 24.90289 | 67.16379 | 104 ft | 8 kts | 346° |
| 2026-04-27 14:04 | 24.90348 | 67.16370 | 103 ft | 12 kts | 8° |
| 2026-04-27 14:04 | 24.90411 | 67.16444 | 103 ft | 14 kts | 70° |
| 2026-04-27 14:04 | 24.90440 | 67.16546 | 105 ft | 14 kts | 73° |
| 2026-04-27 14:04 | 24.90464 | 67.16649 | 104 ft | 14 kts | 75° |
| 2026-04-27 14:05 | 24.90488 | 67.16752 | 106 ft | 14 kts | 75° |
| 2026-04-27 14:05 | 24.90512 | 67.16850 | 108 ft | 13 kts | 74° |
| 2026-04-27 14:05 | 24.90538 | 67.16947 | 107 ft | 13 kts | 73° |
| 2026-04-27 14:05 | 24.90564 | 67.17043 | 107 ft | 13 kts | 73° |
| 2026-04-27 14:06 | 24.90590 | 67.17139 | 107 ft | 13 kts | 74° |
| 2026-04-27 14:06 | 24.90615 | 67.17236 | 107 ft | 13 kts | 73° |
| 2026-04-27 14:06 | 24.90642 | 67.17332 | 108 ft | 13 kts | 71° |
| 2026-04-27 14:06 | 24.90690 | 67.17416 | 109 ft | 13 kts | 42° |
| 2026-04-27 14:07 | 24.90767 | 67.17470 | 110 ft | 13 kts | 27° |
| 2026-04-27 14:07 | 24.90849 | 67.17461 | 109 ft | 13 kts | 310° |
| 2026-04-27 14:07 | 24.90850 | 67.17369 | 109 ft | 9 kts | 255° |
| 2026-04-27 14:07 | 24.90848 | 67.17361 | 110 ft | 0 kts | 255° |
| 2026-04-27 14:08 | 24.90824 | 67.17266 | 108 ft | 43 kts | 254° |
| 2026-04-27 14:08 | 24.90680 | 67.16702 | 107 ft | 111 kts | 254° |
| 2026-04-27 14:08 | 24.90415 | 67.15669 | 99 ft | 167 kts | 254° |
| 2026-04-27 14:09 | 24.90074 | 67.14295 | 220 ft | 195 kts | 255° |
| 2026-04-27 14:09 | 24.89749 | 67.12902 | 952 ft | 179 kts | 263° |
| 2026-04-27 14:09 | 24.90044 | 67.11567 | 1317 ft | 188 kts | 313° |
| 2026-04-27 14:09 | 24.91201 | 67.10908 | 1872 ft | 196 kts | 346° |
| 2026-04-27 14:10 | 24.92594 | 67.10763 | 2264 ft | 207 kts | 353° |
| 2026-04-27 14:10 | 24.94062 | 67.11065 | 2502 ft | 232 kts | 27° |
| 2026-04-27 14:10 | 24.95270 | 67.12352 | 2711 ft | 252 kts | 54° |
| 2026-04-27 14:10 | 24.96282 | 67.13976 | 3209 ft | 262 kts | 54° |
| 2026-04-27 14:11 | 24.97337 | 67.15647 | 3851 ft | 266 kts | 53° |
| 2026-04-27 14:11 | 24.98399 | 67.17316 | 4594 ft | 268 kts | 53° |
| 2026-04-27 14:11 | 24.99476 | 67.18999 | 5316 ft | 269 kts | 52° |
| 2026-04-27 14:11 | 25.00562 | 67.20687 | 6003 ft | 270 kts | 52° |
| 2026-04-27 14:12 | 25.01646 | 67.22364 | 6549 ft | 270 kts | 53° |
| 2026-04-27 14:12 | 25.02757 | 67.24073 | 6683 ft | 279 kts | 52° |
| 2026-04-27 14:12 | 25.03892 | 67.25819 | 6682 ft | 280 kts | 52° |
| 2026-04-27 14:12 | 25.05024 | 67.27558 | 6676 ft | 277 kts | 52° |
| 2026-04-27 14:13 | 25.06144 | 67.29276 | 6683 ft | 277 kts | 52° |
| 2026-04-27 14:13 | 25.07270 | 67.31003 | 6682 ft | 277 kts | 52° |
| 2026-04-27 14:13 | 25.08392 | 67.32723 | 6686 ft | 277 kts | 52° |
| 2026-04-27 14:13 | 25.09518 | 67.34450 | 6694 ft | 277 kts | 52° |
| 2026-04-27 14:14 | 25.10688 | 67.36164 | 6819 ft | 284 kts | 44° |
| 2026-04-27 14:14 | 25.12169 | 67.37669 | 7226 ft | 294 kts | 37° |
| 2026-04-27 14:14 | 25.13767 | 67.39084 | 7945 ft | 295 kts | 37° |
| 2026-04-27 14:14 | 25.15387 | 67.40510 | 8639 ft | 300 kts | 38° |
| 2026-04-27 14:15 | 25.17021 | 67.41974 | 9295 ft | 306 kts | 38° |
| 2026-04-27 14:15 | 25.18655 | 67.43467 | 10051 ft | 306 kts | 39° |
| 2026-04-27 14:15 | 25.20299 | 67.44983 | 10465 ft | 322 kts | 38° |
| 2026-04-27 14:15 | 25.22099 | 67.46649 | 10608 ft | 346 kts | 38° |
| 2026-04-27 14:16 | 25.23984 | 67.48390 | 10794 ft | 368 kts | 38° |
| 2026-04-27 14:16 | 25.26035 | 67.50265 | 11018 ft | 387 kts | 38° |
| 2026-04-27 14:16 | 25.28117 | 67.52161 | 11547 ft | 396 kts | 38° |
| 2026-04-27 14:16 | 25.30260 | 67.54113 | 12186 ft | 402 kts | 38° |
| 2026-04-27 14:17 | 25.32419 | 67.56083 | 12895 ft | 406 kts | 38° |
| 2026-04-27 14:17 | 25.34618 | 67.58091 | 13520 ft | 411 kts | 38° |
| 2026-04-27 14:17 | 25.36834 | 67.60117 | 14165 ft | 414 kts | 38° |
| 2026-04-27 14:17 | 25.39064 | 67.62156 | 14789 ft | 418 kts | 37° |
| 2026-04-27 14:18 | 25.41320 | 67.64221 | 15368 ft | 423 kts | 37° |
| 2026-04-27 14:18 | 25.43590 | 67.66301 | 16043 ft | 425 kts | 38° |
| 2026-04-27 14:18 | 25.45885 | 67.68404 | 16569 ft | 431 kts | 38° |
| 2026-04-27 14:18 | 25.48209 | 67.70534 | 17208 ft | 434 kts | 37° |
| 2026-04-27 14:19 | 25.50550 | 67.72681 | 17842 ft | 438 kts | 37° |
| 2026-04-27 14:19 | 25.52906 | 67.74844 | 18360 ft | 442 kts | 37° |
| 2026-04-27 14:19 | 25.55287 | 67.77029 | 18890 ft | 447 kts | 37° |
| 2026-04-27 14:19 | 25.57689 | 67.79237 | 19397 ft | 450 kts | 38° |
| 2026-04-27 14:20 | 25.60106 | 67.81459 | 19891 ft | 455 kts | 37° |
| 2026-04-27 14:20 | 25.62552 | 67.83708 | 20387 ft | 459 kts | 37° |
| 2026-04-27 14:20 | 25.65020 | 67.85980 | 20899 ft | 463 kts | 37° |
| 2026-04-27 14:20 | 25.67510 | 67.88272 | 21412 ft | 467 kts | 37° |
| 2026-04-27 14:21 | 25.70026 | 67.90590 | 21924 ft | 471 kts | 38° |
| 2026-04-27 14:21 | 25.72557 | 67.92924 | 22423 ft | 475 kts | 38° |
| 2026-04-27 14:21 | 25.75077 | 67.95249 | 22859 ft | 480 kts | 37° |
| 2026-04-27 14:21 | 25.77657 | 67.97629 | 23293 ft | 484 kts | 37° |
| 2026-04-27 14:22 | 25.80255 | 68.00028 | 23703 ft | 487 kts | 37° |
| 2026-04-27 14:22 | 25.82865 | 68.02441 | 24149 ft | 489 kts | 37° |
| 2026-04-27 14:22 | 25.85485 | 68.04863 | 24598 ft | 491 kts | 37° |
| 2026-04-27 14:22 | 25.88116 | 68.07298 | 25025 ft | 494 kts | 37° |
| 2026-04-27 14:23 | 25.90761 | 68.09746 | 25448 ft | 496 kts | 37° |
| 2026-04-27 14:23 | 25.93420 | 68.12209 | 25860 ft | 499 kts | 37° |
| 2026-04-27 14:23 | 25.96093 | 68.14687 | 26263 ft | 502 kts | 37° |
| 2026-04-27 14:23 | 25.98785 | 68.17184 | 26651 ft | 504 kts | 37° |
| 2026-04-27 14:24 | 26.01483 | 68.19688 | 27037 ft | 506 kts | 38° |
| 2026-04-27 14:24 | 26.04196 | 68.22207 | 27455 ft | 508 kts | 38° |
| 2026-04-27 14:24 | 26.07039 | 68.24494 | 27724 ft | 505 kts | 25° |
| 2026-04-27 14:24 | 26.10330 | 68.25820 | 27848 ft | 504 kts | 6° |
| 2026-04-27 14:25 | 26.13802 | 68.25967 | 28138 ft | 498 kts | 349° |
| 2026-04-27 14:25 | 26.17140 | 68.25082 | 28531 ft | 491 kts | 335° |
| 2026-04-27 14:25 | 26.20176 | 68.23376 | 28886 ft | 487 kts | 323° |
| 2026-04-27 14:25 | 26.22779 | 68.20997 | 29166 ft | 484 kts | 311° |
| 2026-04-27 14:26 | 26.24876 | 68.18080 | 29433 ft | 482 kts | 300° |
| 2026-04-27 14:26 | 26.26336 | 68.14742 | 29717 ft | 479 kts | 284° |
| 2026-04-27 14:26 | 26.27044 | 68.11142 | 29950 ft | 476 kts | 279° |
| 2026-04-27 14:26 | 26.27644 | 68.07508 | 30213 ft | 477 kts | 279° |
| 2026-04-27 14:27 | 26.28240 | 68.03875 | 30551 ft | 476 kts | 279° |
| 2026-04-27 14:27 | 26.28851 | 68.00264 | 30925 ft | 475 kts | 280° |
| 2026-04-27 14:27 | 26.29481 | 67.96657 | 31268 ft | 474 kts | 280° |
| 2026-04-27 14:27 | 26.30127 | 67.93049 | 31594 ft | 474 kts | 280° |
| 2026-04-27 14:28 | 26.30780 | 67.89461 | 31889 ft | 473 kts | 280° |
| 2026-04-27 14:28 | 26.31438 | 67.85867 | 32208 ft | 473 kts | 280° |
| 2026-04-27 14:28 | 26.32096 | 67.82278 | 32504 ft | 473 kts | 280° |
| 2026-04-27 14:29 | 26.33417 | 67.75051 | 32597 ft | 476 kts | 280° |
| 2026-04-27 14:29 | 26.34727 | 67.67853 | 32595 ft | 471 kts | 280° |
| 2026-04-27 14:30 | 26.36022 | 67.60706 | 32614 ft | 470 kts | 280° |
| 2026-04-27 14:30 | 26.37311 | 67.53570 | 32630 ft | 469 kts | 280° |
| 2026-04-27 14:31 | 26.38597 | 67.46427 | 32634 ft | 469 kts | 280° |
| 2026-04-27 14:31 | 26.39871 | 67.39331 | 32649 ft | 470 kts | 280° |
| 2026-04-27 14:32 | 26.41154 | 67.32168 | 32640 ft | 471 kts | 280° |
| 2026-04-27 14:32 | 26.42433 | 67.25003 | 32650 ft | 471 kts | 280° |
| 2026-04-27 14:33 | 26.43710 | 67.17827 | 32652 ft | 471 kts | 280° |
| 2026-04-27 14:33 | 26.44982 | 67.10655 | 32674 ft | 471 kts | 280° |
| 2026-04-27 14:34 | 26.46249 | 67.03495 | 32661 ft | 469 kts | 280° |
| 2026-04-27 14:34 | 26.47514 | 66.96355 | 32692 ft | 469 kts | 280° |
| 2026-04-27 14:35 | 26.48795 | 66.89218 | 32714 ft | 469 kts | 280° |
| 2026-04-27 14:35 | 26.50074 | 66.82090 | 32709 ft | 468 kts | 280° |
| 2026-04-27 14:36 | 26.51343 | 66.74989 | 32714 ft | 467 kts | 280° |
| 2026-04-27 14:36 | 26.52605 | 66.67887 | 32713 ft | 466 kts | 280° |
| 2026-04-27 14:37 | 26.53864 | 66.60785 | 32723 ft | 465 kts | 280° |
| 2026-04-27 14:37 | 26.55117 | 66.53694 | 32720 ft | 465 kts | 280° |
| 2026-04-27 14:38 | 26.56367 | 66.46596 | 32718 ft | 466 kts | 280° |
| 2026-04-27 14:38 | 26.57404 | 66.40696 | 32719 ft | 466 kts | 280° |
| 2026-04-27 14:39 | 26.58651 | 66.33582 | 32715 ft | 467 kts | 280° |
| 2026-04-27 14:39 | 26.59895 | 66.26459 | 32734 ft | 467 kts | 280° |
| 2026-04-27 14:40 | 26.61135 | 66.19334 | 32720 ft | 466 kts | 280° |
| 2026-04-27 14:40 | 26.62365 | 66.12250 | 32718 ft | 464 kts | 280° |
| 2026-04-27 14:41 | 26.63590 | 66.05176 | 32720 ft | 462 kts | 280° |
| 2026-04-27 14:41 | 26.64805 | 65.98132 | 32726 ft | 462 kts | 280° |
| 2026-04-27 14:42 | 26.66011 | 65.91122 | 32718 ft | 462 kts | 280° |
| 2026-04-27 14:42 | 26.67228 | 65.84021 | 32709 ft | 462 kts | 280° |
| 2026-04-27 14:43 | 26.68436 | 65.76957 | 32717 ft | 463 kts | 280° |
| 2026-04-27 14:43 | 26.69632 | 65.69936 | 32705 ft | 464 kts | 280° |
| 2026-04-27 14:44 | 26.70836 | 65.62850 | 32729 ft | 464 kts | 280° |
| 2026-04-27 14:44 | 26.72036 | 65.55768 | 32718 ft | 463 kts | 280° |
| 2026-04-27 14:45 | 26.73229 | 65.48704 | 32727 ft | 462 kts | 280° |
| 2026-04-27 14:45 | 26.74416 | 65.41649 | 32715 ft | 461 kts | 279° |
| 2026-04-27 14:46 | 26.75598 | 65.34601 | 32718 ft | 461 kts | 279° |
| 2026-04-27 14:46 | 26.76779 | 65.27545 | 32727 ft | 459 kts | 279° |
| 2026-04-27 14:47 | 26.77949 | 65.20525 | 32719 ft | 458 kts | 279° |
| 2026-04-27 14:47 | 26.79114 | 65.13514 | 32722 ft | 457 kts | 279° |
| 2026-04-27 14:48 | 26.80271 | 65.06522 | 32722 ft | 456 kts | 279° |
| 2026-04-27 14:48 | 26.81990 | 64.96108 | 32702 ft | 456 kts | 279° |
| 2026-04-27 14:49 | 26.83139 | 64.89116 | 32736 ft | 457 kts | 279° |
| 2026-04-27 14:49 | 26.84287 | 64.82108 | 32738 ft | 459 kts | 279° |
| 2026-04-27 14:50 | 26.85440 | 64.75045 | 32739 ft | 461 kts | 279° |
| 2026-04-27 14:50 | 26.86592 | 64.67969 | 32745 ft | 462 kts | 279° |
| 2026-04-27 14:51 | 26.87738 | 64.60905 | 32744 ft | 461 kts | 279° |
| 2026-04-27 14:51 | 26.88883 | 64.53826 | 32731 ft | 460 kts | 279° |
| 2026-04-27 14:52 | 26.90018 | 64.46786 | 32734 ft | 459 kts | 279° |
| 2026-04-27 14:52 | 26.91147 | 64.39753 | 32733 ft | 458 kts | 279° |
| 2026-04-27 14:53 | 26.92273 | 64.32720 | 32721 ft | 458 kts | 279° |
| 2026-04-27 14:53 | 26.93393 | 64.25706 | 32723 ft | 457 kts | 279° |
| 2026-04-27 14:54 | 26.94524 | 64.18743 | 32714 ft | 456 kts | 282° |
| 2026-04-27 14:54 | 26.96484 | 64.11965 | 32715 ft | 457 kts | 290° |
| 2026-04-27 14:55 | 26.99309 | 64.05563 | 32707 ft | 459 kts | 297° |
| 2026-04-27 14:55 | 27.02480 | 63.99341 | 32712 ft | 460 kts | 297° |
| 2026-04-27 14:56 | 27.05653 | 63.93113 | 32691 ft | 460 kts | 297° |
| 2026-04-27 14:56 | 27.08804 | 63.86867 | 32694 ft | 460 kts | 297° |
| 2026-04-27 14:57 | 27.11942 | 63.80608 | 32682 ft | 460 kts | 297° |
| 2026-04-27 14:57 | 27.15081 | 63.74336 | 32678 ft | 460 kts | 297° |
| 2026-04-27 14:58 | 27.18198 | 63.68099 | 32675 ft | 461 kts | 297° |
| 2026-04-27 14:58 | 27.21334 | 63.61821 | 32688 ft | 461 kts | 297° |
| 2026-04-27 14:59 | 27.24468 | 63.55532 | 32673 ft | 461 kts | 297° |
| 2026-04-27 14:59 | 27.27601 | 63.49236 | 32659 ft | 461 kts | 297° |
| 2026-04-27 15:00 | 27.30732 | 63.42937 | 32649 ft | 460 kts | 297° |
| 2026-04-27 15:00 | 27.33854 | 63.36647 | 32668 ft | 460 kts | 297° |
| 2026-04-27 15:01 | 27.36971 | 63.30358 | 32665 ft | 460 kts | 297° |
| 2026-04-27 15:01 | 27.40062 | 63.24113 | 32692 ft | 460 kts | 297° |
| 2026-04-27 15:02 | 27.43193 | 63.17774 | 32675 ft | 460 kts | 297° |
| 2026-04-27 15:02 | 27.46280 | 63.11515 | 32675 ft | 460 kts | 297° |
| 2026-04-27 15:03 | 27.49385 | 63.05215 | 32682 ft | 460 kts | 297° |
| 2026-04-27 15:03 | 27.52491 | 62.98900 | 32678 ft | 460 kts | 297° |
| 2026-04-27 15:04 | 27.55591 | 62.92588 | 32679 ft | 460 kts | 297° |
| 2026-04-27 15:04 | 27.58689 | 62.86273 | 32685 ft | 460 kts | 297° |
| 2026-04-27 15:05 | 27.61777 | 62.79956 | 32706 ft | 458 kts | 297° |
| 2026-04-27 15:05 | 27.64835 | 62.73672 | 32694 ft | 456 kts | 297° |
| 2026-04-27 15:06 | 27.67873 | 62.67419 | 32685 ft | 453 kts | 297° |
| 2026-04-27 15:06 | 27.70891 | 62.61197 | 32712 ft | 452 kts | 297° |
| 2026-04-27 15:07 | 27.73908 | 62.54970 | 32716 ft | 452 kts | 297° |
| 2026-04-27 15:07 | 27.76915 | 62.48751 | 32756 ft | 452 kts | 297° |
| 2026-04-27 15:08 | 27.79928 | 62.42514 | 32740 ft | 452 kts | 297° |
| 2026-04-27 15:08 | 27.82939 | 62.36274 | 32778 ft | 452 kts | 297° |
| 2026-04-27 15:09 | 27.85947 | 62.30026 | 32770 ft | 453 kts | 297° |
| 2026-04-27 15:09 | 27.88956 | 62.23770 | 32799 ft | 453 kts | 297° |
| 2026-04-27 15:10 | 27.91968 | 62.17497 | 32799 ft | 453 kts | 297° |
| 2026-04-27 15:10 | 27.94976 | 62.11224 | 32831 ft | 455 kts | 297° |
| 2026-04-27 15:11 | 27.97988 | 62.04932 | 32816 ft | 454 kts | 297° |
| 2026-04-27 15:11 | 28.00991 | 61.98652 | 32832 ft | 454 kts | 297° |
| 2026-04-27 15:12 | 28.03990 | 61.92373 | 32834 ft | 454 kts | 297° |
| 2026-04-27 15:12 | 28.06979 | 61.86095 | 32836 ft | 453 kts | 297° |
| 2026-04-27 15:13 | 28.09958 | 61.79828 | 32839 ft | 451 kts | 297° |
| 2026-04-27 15:13 | 28.12928 | 61.73580 | 32841 ft | 450 kts | 297° |
| 2026-04-27 15:14 | 28.15884 | 61.67352 | 32852 ft | 449 kts | 297° |
| 2026-04-27 15:14 | 28.19465 | 61.61543 | 32859 ft | 451 kts | 308° |
| 2026-04-27 15:15 | 28.23850 | 61.56480 | 32866 ft | 456 kts | 316° |
| 2026-04-27 15:15 | 28.28765 | 61.51919 | 32871 ft | 457 kts | 317° |
| 2026-04-27 15:16 | 28.33716 | 61.47369 | 32885 ft | 458 kts | 317° |
| 2026-04-27 15:16 | 28.38653 | 61.42787 | 32871 ft | 458 kts | 317° |
| 2026-04-27 15:17 | 28.43577 | 61.38183 | 32886 ft | 458 kts | 317° |
| 2026-04-27 15:17 | 28.48487 | 61.33580 | 32895 ft | 457 kts | 317° |
| 2026-04-27 15:18 | 28.53395 | 61.28976 | 32901 ft | 456 kts | 317° |
| 2026-04-27 15:18 | 28.58289 | 61.24377 | 32920 ft | 455 kts | 317° |
| 2026-04-27 15:19 | 28.63138 | 61.19819 | 32929 ft | 455 kts | 317° |
| 2026-04-27 15:19 | 28.68019 | 61.15222 | 32941 ft | 455 kts | 317° |
| 2026-04-27 15:20 | 28.72901 | 61.10619 | 32938 ft | 455 kts | 317° |
| 2026-04-27 15:20 | 28.77781 | 61.06014 | 32961 ft | 455 kts | 316° |
| 2026-04-27 15:21 | 28.81832 | 61.02184 | 32953 ft | 455 kts | 316° |
| 2026-04-27 15:21 | 28.86692 | 60.97584 | 32954 ft | 453 kts | 316° |
| 2026-04-27 15:22 | 28.91541 | 60.92991 | 32960 ft | 452 kts | 316° |
| 2026-04-27 15:22 | 28.96330 | 60.88338 | 32983 ft | 450 kts | 312° |
| 2026-04-27 15:23 | 29.00459 | 60.83011 | 32973 ft | 447 kts | 304° |
| 2026-04-27 15:23 | 29.03898 | 60.77119 | 32971 ft | 446 kts | 300° |
| 2026-04-27 15:24 | 29.07217 | 60.71118 | 32962 ft | 446 kts | 300° |
| 2026-04-27 15:24 | 29.10548 | 60.65130 | 32964 ft | 446 kts | 300° |
| 2026-04-27 15:25 | 29.13889 | 60.59142 | 32937 ft | 446 kts | 300° |
| 2026-04-27 15:25 | 29.17229 | 60.53153 | 32948 ft | 447 kts | 300° |
| 2026-04-27 15:26 | 29.20570 | 60.47154 | 32932 ft | 447 kts | 300° |
| 2026-04-27 15:26 | 29.24046 | 60.41245 | 32945 ft | 449 kts | 305° |
| 2026-04-27 15:27 | 29.28264 | 60.35923 | 32926 ft | 453 kts | 313° |
| 2026-04-27 15:27 | 29.32878 | 60.31081 | 32968 ft | 452 kts | 314° |
| 2026-04-27 15:28 | 29.37509 | 60.26208 | 32943 ft | 452 kts | 313° |
| 2026-04-27 15:28 | 29.42124 | 60.21316 | 32947 ft | 452 kts | 313° |
| 2026-04-27 15:29 | 29.46733 | 60.16412 | 32954 ft | 452 kts | 313° |
| 2026-04-27 15:29 | 29.51338 | 60.11503 | 32936 ft | 451 kts | 313° |
| 2026-04-27 15:30 | 29.55929 | 60.06605 | 32946 ft | 450 kts | 313° |
| 2026-04-27 15:30 | 29.60510 | 60.01712 | 32915 ft | 448 kts | 313° |
| 2026-04-27 15:31 | 29.65075 | 59.96828 | 32925 ft | 447 kts | 313° |
| 2026-04-27 15:31 | 29.69588 | 59.91908 | 32904 ft | 446 kts | 309° |
| 2026-04-27 15:32 | 29.73621 | 59.86522 | 32913 ft | 444 kts | 306° |
| 2026-04-27 15:32 | 29.77611 | 59.81085 | 32897 ft | 444 kts | 306° |
| 2026-04-27 15:33 | 29.81604 | 59.75658 | 32894 ft | 445 kts | 306° |
| 2026-04-27 15:33 | 29.85588 | 59.70251 | 32876 ft | 445 kts | 306° |
| 2026-04-27 15:34 | 29.89594 | 59.64810 | 32872 ft | 445 kts | 306° |
| 2026-04-27 15:34 | 29.93594 | 59.59369 | 32877 ft | 445 kts | 306° |
| 2026-04-27 15:35 | 29.97603 | 59.53908 | 32867 ft | 446 kts | 306° |
| 2026-04-27 15:35 | 30.01606 | 59.48446 | 32859 ft | 446 kts | 306° |
| 2026-04-27 15:36 | 30.05611 | 59.42975 | 32863 ft | 446 kts | 306° |
| 2026-04-27 15:36 | 30.09608 | 59.37507 | 32874 ft | 445 kts | 306° |
| 2026-04-27 15:37 | 30.13603 | 59.32034 | 32871 ft | 446 kts | 306° |
| 2026-04-27 15:37 | 30.17596 | 59.26557 | 32862 ft | 445 kts | 306° |
| 2026-04-27 15:38 | 30.21588 | 59.21073 | 32867 ft | 445 kts | 306° |
| 2026-04-27 15:38 | 30.25569 | 59.15597 | 32866 ft | 445 kts | 306° |
| 2026-04-27 15:39 | 30.29548 | 59.10116 | 32872 ft | 445 kts | 306° |
| 2026-04-27 15:39 | 30.33520 | 59.04637 | 32865 ft | 445 kts | 306° |
| 2026-04-27 15:40 | 30.37492 | 58.99149 | 32859 ft | 444 kts | 306° |
| 2026-04-27 15:40 | 30.41461 | 58.93660 | 32861 ft | 444 kts | 306° |
| 2026-04-27 15:41 | 30.45430 | 58.88161 | 32886 ft | 444 kts | 306° |
| 2026-04-27 15:41 | 30.49395 | 58.82660 | 32876 ft | 445 kts | 306° |
| 2026-04-27 15:42 | 30.53361 | 58.77152 | 32866 ft | 445 kts | 306° |
| 2026-04-27 15:42 | 30.57299 | 58.71676 | 32868 ft | 445 kts | 306° |
| 2026-04-27 15:43 | 30.61264 | 58.66157 | 32861 ft | 444 kts | 306° |
| 2026-04-27 15:43 | 30.65221 | 58.60638 | 32881 ft | 445 kts | 306° |
| 2026-04-27 15:44 | 30.69177 | 58.55112 | 32859 ft | 445 kts | 306° |
| 2026-04-27 15:44 | 30.73129 | 58.49585 | 32861 ft | 444 kts | 306° |
| 2026-04-27 15:45 | 30.77076 | 58.44055 | 32874 ft | 444 kts | 305° |
| 2026-04-27 15:45 | 30.81027 | 58.38513 | 32888 ft | 445 kts | 305° |
| 2026-04-27 15:46 | 30.84978 | 58.32963 | 32872 ft | 445 kts | 305° |
| 2026-04-27 15:46 | 30.88925 | 58.27410 | 32872 ft | 446 kts | 305° |
| 2026-04-27 15:47 | 30.92878 | 58.21842 | 32872 ft | 446 kts | 305° |
| 2026-04-27 15:47 | 30.96830 | 58.16267 | 32882 ft | 446 kts | 305° |
| 2026-04-27 15:48 | 31.00786 | 58.10677 | 32883 ft | 447 kts | 305° |
| 2026-04-27 15:49 | 31.06729 | 58.02266 | 32886 ft | 448 kts | 305° |
| 2026-04-27 15:49 | 31.10694 | 57.96646 | 32888 ft | 449 kts | 305° |
| 2026-04-27 15:50 | 31.14656 | 57.91020 | 32916 ft | 448 kts | 305° |
| 2026-04-27 15:50 | 31.18617 | 57.85389 | 32905 ft | 448 kts | 305° |
| 2026-04-27 15:51 | 31.22562 | 57.79771 | 32895 ft | 447 kts | 305° |
| 2026-04-27 15:51 | 31.26468 | 57.74200 | 32899 ft | 445 kts | 305° |
| 2026-04-27 15:52 | 31.30395 | 57.68591 | 32894 ft | 445 kts | 305° |
| 2026-04-27 15:52 | 31.34320 | 57.62976 | 32906 ft | 446 kts | 304° |
| 2026-04-27 15:53 | 31.38243 | 57.57357 | 32893 ft | 447 kts | 304° |
| 2026-04-27 15:53 | 31.42173 | 57.51719 | 32883 ft | 447 kts | 304° |
| 2026-04-27 15:54 | 31.46106 | 57.46070 | 32885 ft | 448 kts | 304° |
| 2026-04-27 15:54 | 31.50043 | 57.40404 | 32896 ft | 448 kts | 304° |
| 2026-04-27 15:55 | 31.53981 | 57.34732 | 32894 ft | 448 kts | 304° |
| 2026-04-27 15:55 | 31.57908 | 57.29066 | 32887 ft | 447 kts | 304° |
| 2026-04-27 15:56 | 31.61825 | 57.23405 | 32888 ft | 446 kts | 304° |
| 2026-04-27 15:56 | 31.65738 | 57.17743 | 32897 ft | 446 kts | 304° |
| 2026-04-27 15:57 | 31.69618 | 57.12118 | 32893 ft | 446 kts | 304° |
| 2026-04-27 15:57 | 31.73527 | 57.06442 | 32896 ft | 447 kts | 304° |
| 2026-04-27 15:58 | 31.77447 | 57.00744 | 32907 ft | 448 kts | 304° |
| 2026-04-27 15:58 | 31.81422 | 56.95083 | 32899 ft | 450 kts | 305° |
| 2026-04-27 15:59 | 31.85475 | 56.89484 | 32903 ft | 450 kts | 306° |
| 2026-04-27 15:59 | 31.89535 | 56.83873 | 32901 ft | 450 kts | 306° |
| 2026-04-27 16:00 | 31.93583 | 56.78246 | 32902 ft | 449 kts | 305° |
| 2026-04-27 16:00 | 31.97612 | 56.72624 | 32958 ft | 449 kts | 305° |
| 2026-04-27 16:01 | 32.01639 | 56.66992 | 32919 ft | 449 kts | 305° |
| 2026-04-27 16:01 | 32.05654 | 56.61369 | 32906 ft | 448 kts | 305° |
| 2026-04-27 16:02 | 32.09656 | 56.55756 | 32896 ft | 447 kts | 305° |
| 2026-04-27 16:02 | 32.12980 | 56.51087 | 32906 ft | 446 kts | 305° |
| 2026-04-27 16:03 | 32.17623 | 56.44555 | 32914 ft | 447 kts | 305° |
| 2026-04-27 16:03 | 32.20957 | 56.39859 | 32919 ft | 449 kts | 305° |
| 2026-04-27 16:04 | 32.24974 | 56.34193 | 32906 ft | 450 kts | 305° |
| 2026-04-27 16:04 | 32.28996 | 56.28511 | 32889 ft | 451 kts | 305° |
| 2026-04-27 16:05 | 32.33024 | 56.22811 | 32896 ft | 452 kts | 306° |
| 2026-04-27 16:05 | 32.37056 | 56.17100 | 32879 ft | 452 kts | 306° |
| 2026-04-27 16:06 | 32.41084 | 56.11385 | 32891 ft | 452 kts | 306° |
| 2026-04-27 16:06 | 32.45109 | 56.05664 | 32883 ft | 451 kts | 306° |
| 2026-04-27 16:07 | 32.49125 | 55.99947 | 32879 ft | 451 kts | 306° |
| 2026-04-27 16:07 | 32.53142 | 55.94220 | 32876 ft | 451 kts | 306° |
| 2026-04-27 16:08 | 32.57148 | 55.88500 | 32875 ft | 451 kts | 306° |
| 2026-04-27 16:08 | 32.61159 | 55.82764 | 32878 ft | 451 kts | 306° |
| 2026-04-27 16:09 | 32.65167 | 55.77022 | 32878 ft | 453 kts | 306° |
| 2026-04-27 16:09 | 32.71171 | 55.68406 | 32866 ft | 454 kts | 306° |
| 2026-04-27 16:10 | 32.79224 | 55.56817 | 32883 ft | 455 kts | 306° |
| 2026-04-27 16:11 | 32.85261 | 55.48106 | 32875 ft | 455 kts | 306° |
| 2026-04-27 16:12 | 32.91289 | 55.39389 | 32875 ft | 454 kts | 306° |
| 2026-04-27 16:13 | 32.97292 | 55.30686 | 32868 ft | 453 kts | 306° |
| 2026-04-27 16:13 | 33.03296 | 55.21960 | 32854 ft | 453 kts | 306° |
| 2026-04-27 16:14 | 33.11292 | 55.10306 | 32860 ft | 455 kts | 306° |
| 2026-04-27 16:15 | 33.19299 | 54.98603 | 32872 ft | 455 kts | 305° |
| 2026-04-27 16:16 | 33.27270 | 54.86912 | 32861 ft | 452 kts | 305° |
| 2026-04-27 16:17 | 33.35192 | 54.75257 | 32863 ft | 450 kts | 305° |
| 2026-04-27 16:18 | 33.43104 | 54.63578 | 32871 ft | 453 kts | 304° |
| 2026-04-27 16:19 | 33.47074 | 54.57700 | 32864 ft | 454 kts | 304° |
| 2026-04-27 16:20 | 33.55030 | 54.45902 | 32861 ft | 455 kts | 304° |
| 2026-04-27 16:21 | 33.60991 | 54.37039 | 32860 ft | 455 kts | 304° |
| 2026-04-27 16:22 | 33.68882 | 54.25267 | 32860 ft | 454 kts | 304° |
| 2026-04-27 16:22 | 33.74810 | 54.16399 | 32850 ft | 454 kts | 304° |
| 2026-04-27 16:23 | 33.80743 | 54.07501 | 32858 ft | 455 kts | 304° |
| 2026-04-27 16:24 | 33.84710 | 54.01541 | 32843 ft | 456 kts | 304° |
| 2026-04-27 16:25 | 33.92633 | 53.89605 | 32835 ft | 457 kts | 304° |
| 2026-04-27 16:26 | 34.00562 | 53.77622 | 32842 ft | 457 kts | 303° |
| 2026-04-27 16:27 | 34.08467 | 53.65636 | 32854 ft | 455 kts | 303° |
| 2026-04-27 16:28 | 34.18284 | 53.50693 | 32835 ft | 454 kts | 303° |
| 2026-04-27 16:29 | 34.28037 | 53.35786 | 32832 ft | 453 kts | 303° |
| 2026-04-27 16:30 | 34.35836 | 53.23819 | 32862 ft | 453 kts | 303° |
| 2026-04-27 16:31 | 34.45582 | 53.08810 | 32846 ft | 453 kts | 303° |
| 2026-04-27 16:32 | 34.51412 | 52.99802 | 32857 ft | 453 kts | 303° |
| 2026-04-27 16:33 | 34.57235 | 52.90782 | 32853 ft | 452 kts | 302° |
| 2026-04-27 16:33 | 34.61107 | 52.84771 | 32863 ft | 451 kts | 302° |
| 2026-04-27 16:34 | 34.64973 | 52.78755 | 32860 ft | 453 kts | 303° |
| 2026-04-27 16:34 | 34.68844 | 52.72723 | 32875 ft | 457 kts | 303° |
| 2026-04-27 16:35 | 34.72760 | 52.66612 | 32882 ft | 459 kts | 303° |
| 2026-04-27 16:36 | 34.78660 | 52.57388 | 32875 ft | 461 kts | 303° |
| 2026-04-27 16:36 | 34.82596 | 52.51222 | 32873 ft | 461 kts | 303° |
| 2026-04-27 16:37 | 34.86523 | 52.45058 | 32883 ft | 460 kts | 303° |
| 2026-04-27 16:37 | 34.90440 | 52.38899 | 32898 ft | 460 kts | 302° |
| 2026-04-27 16:38 | 34.94358 | 52.32726 | 32895 ft | 460 kts | 302° |
| 2026-04-27 16:38 | 34.98270 | 52.26552 | 32891 ft | 459 kts | 303° |
| 2026-04-27 16:39 | 35.02172 | 52.20383 | 32925 ft | 459 kts | 302° |
| 2026-04-27 16:39 | 35.06072 | 52.14204 | 32917 ft | 460 kts | 302° |
| 2026-04-27 16:40 | 35.09982 | 52.08000 | 32915 ft | 461 kts | 302° |
| 2026-04-27 16:40 | 35.13901 | 52.01772 | 32906 ft | 462 kts | 302° |
| 2026-04-27 16:41 | 35.17826 | 51.95523 | 32932 ft | 464 kts | 302° |
| 2026-04-27 16:41 | 35.21759 | 51.89248 | 32942 ft | 466 kts | 302° |
| 2026-04-27 16:42 | 35.25701 | 51.82949 | 32959 ft | 467 kts | 302° |
| 2026-04-27 16:42 | 35.29650 | 51.76628 | 32942 ft | 468 kts | 302° |
| 2026-04-27 16:43 | 35.33606 | 51.70285 | 32951 ft | 469 kts | 302° |
| 2026-04-27 16:43 | 35.37563 | 51.63928 | 32959 ft | 469 kts | 302° |
| 2026-04-27 16:44 | 35.41492 | 51.57605 | 32977 ft | 469 kts | 302° |
| 2026-04-27 16:44 | 35.45445 | 51.51232 | 32990 ft | 469 kts | 302° |
| 2026-04-27 16:45 | 35.49393 | 51.44855 | 32997 ft | 469 kts | 302° |
| 2026-04-27 16:45 | 35.52695 | 51.39511 | 33024 ft | 468 kts | 302° |
| 2026-04-27 16:46 | 35.56603 | 51.33178 | 33016 ft | 468 kts | 302° |
| 2026-04-27 16:46 | 35.60527 | 51.26806 | 33008 ft | 467 kts | 302° |
| 2026-04-27 16:47 | 35.64439 | 51.20441 | 33024 ft | 466 kts | 302° |
| 2026-04-27 16:47 | 35.68342 | 51.14080 | 33008 ft | 466 kts | 302° |
| 2026-04-27 16:48 | 35.72239 | 51.07718 | 33011 ft | 465 kts | 302° |
| 2026-04-27 16:48 | 35.76129 | 51.01354 | 33012 ft | 465 kts | 302° |
| 2026-04-27 16:49 | 35.81961 | 50.91790 | 33052 ft | 466 kts | 301° |
| 2026-04-27 16:49 | 35.85851 | 50.85398 | 33040 ft | 466 kts | 301° |
| 2026-04-27 16:50 | 35.89737 | 50.79000 | 33083 ft | 466 kts | 301° |
| 2026-04-27 16:50 | 35.93627 | 50.72583 | 33058 ft | 467 kts | 301° |
| 2026-04-27 16:51 | 35.97519 | 50.66150 | 33041 ft | 468 kts | 301° |
| 2026-04-27 16:51 | 36.01395 | 50.59733 | 33034 ft | 468 kts | 301° |
| 2026-04-27 16:52 | 36.05288 | 50.53278 | 33041 ft | 468 kts | 301° |
| 2026-04-27 16:52 | 36.09178 | 50.46813 | 33033 ft | 469 kts | 301° |
| 2026-04-27 16:53 | 36.13067 | 50.40338 | 33045 ft | 469 kts | 301° |
| 2026-04-27 16:53 | 36.16958 | 50.33847 | 33053 ft | 469 kts | 301° |
| 2026-04-27 16:54 | 36.20843 | 50.27354 | 33040 ft | 469 kts | 301° |
| 2026-04-27 16:54 | 36.24726 | 50.20853 | 33049 ft | 469 kts | 301° |
| 2026-04-27 16:55 | 36.28607 | 50.14341 | 33046 ft | 470 kts | 301° |
| 2026-04-27 16:55 | 36.32491 | 50.07814 | 33047 ft | 471 kts | 301° |
| 2026-04-27 16:56 | 36.36376 | 50.01270 | 33057 ft | 471 kts | 301° |
| 2026-04-27 16:56 | 36.40265 | 49.94707 | 33030 ft | 472 kts | 301° |
| 2026-04-27 16:57 | 36.44159 | 49.88125 | 33035 ft | 473 kts | 301° |
| 2026-04-27 16:57 | 36.48056 | 49.81523 | 33031 ft | 474 kts | 301° |
| 2026-04-27 16:58 | 36.51959 | 49.74901 | 33028 ft | 475 kts | 301° |
| 2026-04-27 16:58 | 36.55866 | 49.68256 | 33016 ft | 476 kts | 301° |
| 2026-04-27 16:59 | 36.59771 | 49.61605 | 33021 ft | 475 kts | 301° |
| 2026-04-27 16:59 | 36.63641 | 49.55002 | 33028 ft | 475 kts | 301° |
| 2026-04-27 17:00 | 36.69467 | 49.45029 | 33026 ft | 474 kts | 301° |
| 2026-04-27 17:01 | 36.73339 | 49.38389 | 33029 ft | 473 kts | 301° |
| 2026-04-27 17:01 | 36.77197 | 49.31757 | 33029 ft | 472 kts | 301° |
| 2026-04-27 17:02 | 36.81053 | 49.25116 | 33026 ft | 472 kts | 301° |
| 2026-04-27 17:02 | 36.84890 | 49.18498 | 33024 ft | 469 kts | 301° |
| 2026-04-27 17:03 | 36.88718 | 49.11878 | 33019 ft | 469 kts | 301° |
| 2026-04-27 17:03 | 36.92524 | 49.05284 | 33030 ft | 468 kts | 301° |
| 2026-04-27 17:04 | 36.96329 | 48.98678 | 33021 ft | 468 kts | 300° |
| 2026-04-27 17:04 | 37.00109 | 48.92103 | 33018 ft | 468 kts | 300° |
| 2026-04-27 17:05 | 37.03913 | 48.85475 | 33024 ft | 470 kts | 300° |
| 2026-04-27 17:05 | 37.07720 | 48.78824 | 33025 ft | 470 kts | 300° |
| 2026-04-27 17:06 | 37.11529 | 48.72161 | 33019 ft | 470 kts | 300° |
| 2026-04-27 17:06 | 37.15335 | 48.65492 | 33018 ft | 470 kts | 300° |
| 2026-04-27 17:07 | 37.19131 | 48.58829 | 33027 ft | 469 kts | 300° |
| 2026-04-27 17:07 | 37.22917 | 48.52164 | 33033 ft | 469 kts | 300° |
| 2026-04-27 17:08 | 37.26702 | 48.45486 | 33023 ft | 469 kts | 300° |
| 2026-04-27 17:08 | 37.30482 | 48.38806 | 33008 ft | 469 kts | 300° |
| 2026-04-27 17:09 | 37.34260 | 48.32118 | 33028 ft | 469 kts | 300° |
| 2026-04-27 17:09 | 37.38034 | 48.25420 | 33026 ft | 470 kts | 300° |
| 2026-04-27 17:10 | 37.41805 | 48.18719 | 33004 ft | 468 kts | 300° |
| 2026-04-27 17:10 | 37.45555 | 48.12043 | 33018 ft | 467 kts | 300° |
| 2026-04-27 17:11 | 37.49307 | 48.05346 | 33014 ft | 468 kts | 300° |
| 2026-04-27 17:11 | 37.54938 | 47.95265 | 33036 ft | 470 kts | 300° |
| 2026-04-27 17:12 | 37.60560 | 47.85176 | 33000 ft | 471 kts | 300° |
| 2026-04-27 17:13 | 37.64316 | 47.78419 | 33019 ft | 470 kts | 299° |
| 2026-04-27 17:13 | 37.68090 | 47.71616 | 33016 ft | 469 kts | 299° |
| 2026-04-27 17:14 | 37.71827 | 47.64864 | 33015 ft | 469 kts | 299° |
| 2026-04-27 17:14 | 37.75527 | 47.58167 | 33047 ft | 467 kts | 299° |
| 2026-04-27 17:15 | 37.79237 | 47.51435 | 33027 ft | 466 kts | 299° |
| 2026-04-27 17:15 | 37.82936 | 47.44709 | 33018 ft | 466 kts | 299° |
| 2026-04-27 17:16 | 37.86632 | 47.37978 | 33033 ft | 466 kts | 299° |
| 2026-04-27 17:16 | 37.89905 | 47.30956 | 33013 ft | 460 kts | 289° |
| 2026-04-27 17:17 | 37.92422 | 47.23516 | 33016 ft | 460 kts | 288° |
| 2026-04-27 17:17 | 37.94943 | 47.16042 | 33006 ft | 461 kts | 288° |
| 2026-04-27 17:18 | 37.98766 | 47.04793 | 33000 ft | 465 kts | 288° |
| 2026-04-27 17:18 | 38.01336 | 46.97244 | 32995 ft | 466 kts | 288° |
| 2026-04-27 17:19 | 38.03904 | 46.89685 | 33004 ft | 467 kts | 288° |
| 2026-04-27 17:19 | 38.06468 | 46.82110 | 32988 ft | 468 kts | 288° |
| 2026-04-27 17:20 | 38.09037 | 46.74504 | 32989 ft | 469 kts | 288° |
| 2026-04-27 17:20 | 38.11605 | 46.66880 | 33010 ft | 469 kts | 288° |
| 2026-04-27 17:21 | 38.14163 | 46.59264 | 32992 ft | 468 kts | 288° |
| 2026-04-27 17:21 | 38.16714 | 46.51649 | 32990 ft | 468 kts | 288° |
| 2026-04-27 17:22 | 38.19258 | 46.44036 | 32986 ft | 468 kts | 288° |
| 2026-04-27 17:22 | 38.21793 | 46.36427 | 33000 ft | 467 kts | 288° |
| 2026-04-27 17:23 | 38.24323 | 46.28817 | 33001 ft | 468 kts | 288° |
| 2026-04-27 17:23 | 38.26857 | 46.21172 | 32996 ft | 469 kts | 288° |
| 2026-04-27 17:24 | 38.29373 | 46.13560 | 32994 ft | 469 kts | 288° |
| 2026-04-27 17:24 | 38.31907 | 46.05875 | 32988 ft | 472 kts | 288° |
| 2026-04-27 17:25 | 38.34446 | 45.98153 | 32988 ft | 473 kts | 288° |
| 2026-04-27 17:25 | 38.36988 | 45.90403 | 32988 ft | 474 kts | 288° |
| 2026-04-27 17:26 | 38.39536 | 45.82613 | 32983 ft | 475 kts | 288° |
| 2026-04-27 17:26 | 38.42076 | 45.74828 | 32983 ft | 475 kts | 288° |
| 2026-04-27 17:27 | 38.44612 | 45.67034 | 32980 ft | 475 kts | 288° |
| 2026-04-27 17:27 | 38.46710 | 45.60570 | 32979 ft | 474 kts | 288° |
| 2026-04-27 17:28 | 38.49224 | 45.52803 | 32970 ft | 473 kts | 288° |
| 2026-04-27 17:29 | 38.53384 | 45.39903 | 32966 ft | 472 kts | 288° |
| 2026-04-27 17:29 | 38.55470 | 45.33409 | 32970 ft | 472 kts | 288° |
| 2026-04-27 17:30 | 38.57962 | 45.25636 | 32981 ft | 473 kts | 288° |
| 2026-04-27 17:30 | 38.61684 | 45.13983 | 32987 ft | 474 kts | 288° |
| 2026-04-27 17:31 | 38.64175 | 45.06160 | 32985 ft | 476 kts | 288° |
| 2026-04-27 17:31 | 38.66668 | 44.98305 | 32999 ft | 477 kts | 288° |
| 2026-04-27 17:32 | 38.70411 | 44.86473 | 32997 ft | 479 kts | 288° |
| 2026-04-27 17:33 | 38.72905 | 44.78565 | 33012 ft | 479 kts | 288° |
| 2026-04-27 17:33 | 38.75399 | 44.70631 | 33030 ft | 480 kts | 288° |
| 2026-04-27 17:34 | 38.77889 | 44.62686 | 33031 ft | 481 kts | 288° |
| 2026-04-27 17:34 | 38.80376 | 44.54731 | 33034 ft | 481 kts | 288° |
| 2026-04-27 17:35 | 38.82858 | 44.46766 | 33035 ft | 481 kts | 288° |
| 2026-04-27 17:35 | 38.85339 | 44.38781 | 33040 ft | 481 kts | 288° |
| 2026-04-27 17:36 | 38.87808 | 44.30815 | 33057 ft | 480 kts | 288° |
| 2026-04-27 17:36 | 38.90276 | 44.22829 | 33044 ft | 482 kts | 288° |
| 2026-04-27 17:37 | 38.92983 | 44.14915 | 33036 ft | 486 kts | 291° |
| 2026-04-27 17:37 | 38.95886 | 44.07071 | 33036 ft | 486 kts | 291° |
| 2026-04-27 17:38 | 38.98798 | 43.99208 | 33041 ft | 487 kts | 291° |
| 2026-04-27 17:38 | 39.01681 | 43.91333 | 33041 ft | 487 kts | 291° |
| 2026-04-27 17:39 | 39.04544 | 43.83452 | 33043 ft | 486 kts | 291° |
| 2026-04-27 17:39 | 39.07382 | 43.75614 | 33055 ft | 486 kts | 291° |
| 2026-04-27 17:40 | 39.10238 | 43.67708 | 33050 ft | 487 kts | 291° |
| 2026-04-27 17:40 | 39.13093 | 43.59788 | 33051 ft | 488 kts | 291° |
| 2026-04-27 17:41 | 39.15943 | 43.51858 | 33058 ft | 488 kts | 291° |
| 2026-04-27 17:41 | 39.18793 | 43.43911 | 33053 ft | 488 kts | 291° |
| 2026-04-27 17:42 | 39.21637 | 43.35958 | 33054 ft | 488 kts | 291° |
| 2026-04-27 17:42 | 39.24472 | 43.28004 | 33071 ft | 488 kts | 292° |
| 2026-04-27 17:43 | 39.27301 | 43.20050 | 33058 ft | 488 kts | 292° |
| 2026-04-27 17:43 | 39.30122 | 43.12094 | 33037 ft | 487 kts | 292° |
| 2026-04-27 17:44 | 39.32933 | 43.04148 | 33064 ft | 486 kts | 292° |
| 2026-04-27 17:44 | 39.35734 | 42.96207 | 33037 ft | 486 kts | 292° |
| 2026-04-27 17:45 | 39.38527 | 42.88264 | 33054 ft | 485 kts | 292° |
| 2026-04-27 17:45 | 39.41316 | 42.80315 | 33055 ft | 485 kts | 292° |
| 2026-04-27 17:46 | 39.44099 | 42.72357 | 33038 ft | 485 kts | 292° |
| 2026-04-27 17:46 | 39.46872 | 42.64410 | 33046 ft | 484 kts | 292° |
| 2026-04-27 17:47 | 39.49632 | 42.56480 | 33036 ft | 483 kts | 293° |
| 2026-04-27 17:47 | 39.52378 | 42.48559 | 33038 ft | 481 kts | 294° |
| 2026-04-27 17:48 | 39.55110 | 42.40665 | 33045 ft | 479 kts | 294° |
| 2026-04-27 17:48 | 39.57827 | 42.32793 | 33059 ft | 478 kts | 294° |
| 2026-04-27 17:49 | 39.60531 | 42.24934 | 33074 ft | 476 kts | 294° |
| 2026-04-27 17:49 | 39.63222 | 42.17091 | 33059 ft | 475 kts | 294° |
| 2026-04-27 17:50 | 39.65905 | 42.09254 | 33080 ft | 475 kts | 293° |
| 2026-04-27 17:50 | 39.69900 | 41.97540 | 33057 ft | 475 kts | 293° |
| 2026-04-27 17:51 | 39.72569 | 41.89686 | 33065 ft | 475 kts | 293° |
| 2026-04-27 17:51 | 39.75239 | 41.81809 | 33067 ft | 475 kts | 293° |
| 2026-04-27 17:52 | 39.77898 | 41.73945 | 33062 ft | 475 kts | 293° |
| 2026-04-27 17:52 | 39.80101 | 41.67408 | 33081 ft | 476 kts | 293° |
| 2026-04-27 17:53 | 39.83209 | 41.58166 | 33082 ft | 477 kts | 293° |
| 2026-04-27 17:53 | 39.85866 | 41.50238 | 33083 ft | 478 kts | 293° |
| 2026-04-27 17:54 | 39.88502 | 41.42351 | 33086 ft | 478 kts | 293° |
| 2026-04-27 17:54 | 39.91154 | 41.34394 | 33070 ft | 478 kts | 293° |
| 2026-04-27 17:55 | 39.93797 | 41.26443 | 33067 ft | 478 kts | 293° |
| 2026-04-27 17:55 | 39.96421 | 41.18490 | 33119 ft | 477 kts | 292° |
| 2026-04-27 17:56 | 39.98914 | 41.10468 | 33138 ft | 477 kts | 292° |
| 2026-04-27 17:56 | 40.01362 | 41.02422 | 33133 ft | 477 kts | 292° |
| 2026-04-27 17:57 | 40.03818 | 40.94375 | 33118 ft | 477 kts | 291° |
| 2026-04-27 17:57 | 40.06278 | 40.86338 | 33111 ft | 476 kts | 291° |
| 2026-04-27 17:58 | 40.08730 | 40.78311 | 33092 ft | 475 kts | 291° |
| 2026-04-27 17:58 | 40.11165 | 40.70318 | 33072 ft | 474 kts | 291° |
| 2026-04-27 17:59 | 40.13593 | 40.62321 | 33094 ft | 473 kts | 291° |
| 2026-04-27 17:59 | 40.16018 | 40.54308 | 33130 ft | 474 kts | 291° |
| 2026-04-27 18:00 | 40.18437 | 40.46293 | 33126 ft | 474 kts | 291° |
| 2026-04-27 18:00 | 40.20851 | 40.38271 | 33146 ft | 474 kts | 291° |
| 2026-04-27 18:01 | 40.23263 | 40.30231 | 33148 ft | 475 kts | 291° |
| 2026-04-27 18:01 | 40.25673 | 40.22173 | 33161 ft | 476 kts | 291° |
| 2026-04-27 18:02 | 40.28080 | 40.14099 | 33182 ft | 476 kts | 291° |
| 2026-04-27 18:02 | 40.30487 | 40.06002 | 33192 ft | 476 kts | 291° |
| 2026-04-27 18:03 | 40.32882 | 39.97920 | 33199 ft | 476 kts | 291° |
| 2026-04-27 18:03 | 40.35273 | 39.89824 | 33180 ft | 476 kts | 291° |
| 2026-04-27 18:04 | 40.37660 | 39.81722 | 33214 ft | 475 kts | 291° |
| 2026-04-27 18:04 | 40.40021 | 39.73679 | 33204 ft | 474 kts | 291° |
| 2026-04-27 18:05 | 40.42385 | 39.65603 | 33216 ft | 474 kts | 291° |
| 2026-04-27 18:05 | 40.44735 | 39.57527 | 33198 ft | 473 kts | 291° |
| 2026-04-27 18:06 | 40.47077 | 39.49441 | 33219 ft | 473 kts | 291° |
| 2026-04-27 18:06 | 40.49414 | 39.41352 | 33234 ft | 473 kts | 291° |
| 2026-04-27 18:07 | 40.51744 | 39.33267 | 33221 ft | 473 kts | 291° |
| 2026-04-27 18:07 | 40.54071 | 39.25165 | 33230 ft | 473 kts | 290° |
| 2026-04-27 18:08 | 40.56386 | 39.17077 | 33250 ft | 472 kts | 290° |
| 2026-04-27 18:08 | 40.58693 | 39.08993 | 33249 ft | 472 kts | 290° |
| 2026-04-27 18:09 | 40.60977 | 39.00968 | 33239 ft | 471 kts | 290° |
| 2026-04-27 18:09 | 40.63268 | 38.92894 | 33265 ft | 471 kts | 290° |
| 2026-04-27 18:10 | 40.65540 | 38.84813 | 33238 ft | 471 kts | 290° |
| 2026-04-27 18:10 | 40.67787 | 38.76711 | 33260 ft | 471 kts | 290° |
| 2026-04-27 18:11 | 40.69663 | 38.69916 | 33268 ft | 472 kts | 290° |
| 2026-04-27 18:11 | 40.71907 | 38.61775 | 33273 ft | 472 kts | 290° |
| 2026-04-27 18:12 | 40.74148 | 38.53631 | 33279 ft | 472 kts | 290° |
| 2026-04-27 18:12 | 40.76387 | 38.45467 | 33276 ft | 473 kts | 290° |
| 2026-04-27 18:13 | 40.78603 | 38.37360 | 33286 ft | 473 kts | 289° |
| 2026-04-27 18:13 | 40.80826 | 38.29203 | 33285 ft | 472 kts | 289° |
| 2026-04-27 18:14 | 40.83038 | 38.21055 | 33298 ft | 471 kts | 289° |
| 2026-04-27 18:14 | 40.85243 | 38.12911 | 33291 ft | 471 kts | 289° |
| 2026-04-27 18:15 | 40.87438 | 38.04774 | 33280 ft | 470 kts | 289° |
| 2026-04-27 18:15 | 40.89623 | 37.96649 | 33302 ft | 469 kts | 289° |
| 2026-04-27 18:16 | 40.91802 | 37.88522 | 33302 ft | 468 kts | 289° |
| 2026-04-27 18:16 | 40.93970 | 37.80405 | 33287 ft | 468 kts | 289° |
| 2026-04-27 18:17 | 40.96131 | 37.72294 | 33282 ft | 467 kts | 289° |
| 2026-04-27 18:17 | 40.98281 | 37.64191 | 33283 ft | 466 kts | 289° |
| 2026-04-27 18:18 | 41.00409 | 37.56148 | 33297 ft | 466 kts | 289° |
| 2026-04-27 18:18 | 41.02543 | 37.48053 | 33291 ft | 465 kts | 288° |
| 2026-04-27 18:19 | 41.04673 | 37.39952 | 33289 ft | 465 kts | 288° |
| 2026-04-27 18:19 | 41.06792 | 37.31861 | 33289 ft | 465 kts | 288° |
| 2026-04-27 18:20 | 41.08902 | 37.23777 | 33297 ft | 464 kts | 288° |
| 2026-04-27 18:20 | 41.11011 | 37.15674 | 33292 ft | 464 kts | 288° |
| 2026-04-27 18:21 | 41.13107 | 37.07591 | 33286 ft | 464 kts | 288° |
| 2026-04-27 18:21 | 41.15198 | 36.99501 | 33284 ft | 463 kts | 288° |
| 2026-04-27 18:22 | 41.17285 | 36.91401 | 33287 ft | 463 kts | 288° |
| 2026-04-27 18:22 | 41.19365 | 36.83300 | 33291 ft | 463 kts | 288° |
| 2026-04-27 18:23 | 41.21435 | 36.75207 | 33291 ft | 463 kts | 288° |
| 2026-04-27 18:23 | 41.23499 | 36.67115 | 33293 ft | 462 kts | 288° |
| 2026-04-27 18:24 | 41.25557 | 36.59021 | 33300 ft | 462 kts | 287° |
| 2026-04-27 18:24 | 41.27610 | 36.50933 | 33281 ft | 462 kts | 288° |
| 2026-04-27 18:25 | 41.29674 | 36.42846 | 33284 ft | 461 kts | 288° |
| 2026-04-27 18:25 | 41.31729 | 36.34779 | 33279 ft | 461 kts | 288° |
| 2026-04-27 18:26 | 41.33777 | 36.26703 | 33287 ft | 460 kts | 287° |
| 2026-04-27 18:26 | 41.35816 | 36.18633 | 33279 ft | 460 kts | 287° |
| 2026-04-27 18:27 | 41.37833 | 36.10616 | 33272 ft | 459 kts | 287° |
| 2026-04-27 18:27 | 41.39854 | 36.02563 | 33273 ft | 458 kts | 287° |
| 2026-04-27 18:28 | 41.41867 | 35.94508 | 33283 ft | 458 kts | 287° |
| 2026-04-27 18:28 | 41.43875 | 35.86448 | 33265 ft | 458 kts | 287° |
| 2026-04-27 18:29 | 41.45874 | 35.78394 | 33272 ft | 457 kts | 287° |
| 2026-04-27 18:29 | 41.47866 | 35.70345 | 33262 ft | 457 kts | 287° |
| 2026-04-27 18:30 | 41.49851 | 35.62297 | 33275 ft | 457 kts | 287° |
| 2026-04-27 18:30 | 41.51830 | 35.54242 | 33275 ft | 457 kts | 287° |
| 2026-04-27 18:31 | 41.53807 | 35.46169 | 33272 ft | 457 kts | 287° |
| 2026-04-27 18:31 | 41.55781 | 35.38083 | 33269 ft | 458 kts | 287° |
| 2026-04-27 18:32 | 41.57744 | 35.30011 | 33271 ft | 457 kts | 287° |
| 2026-04-27 18:32 | 41.59700 | 35.21937 | 33257 ft | 456 kts | 287° |
| 2026-04-27 18:33 | 41.61649 | 35.13866 | 33261 ft | 457 kts | 287° |
| 2026-04-27 18:33 | 41.63596 | 35.05774 | 33270 ft | 457 kts | 286° |
| 2026-04-27 18:34 | 41.65520 | 34.97754 | 33262 ft | 456 kts | 286° |
| 2026-04-27 18:34 | 41.67451 | 34.89673 | 33259 ft | 456 kts | 286° |
| 2026-04-27 18:35 | 41.69374 | 34.81593 | 33258 ft | 456 kts | 286° |
| 2026-04-27 18:35 | 41.71292 | 34.73512 | 33271 ft | 455 kts | 286° |
| 2026-04-27 18:36 | 41.73202 | 34.65439 | 33270 ft | 455 kts | 286° |
| 2026-04-27 18:36 | 41.75103 | 34.57365 | 33261 ft | 455 kts | 286° |
| 2026-04-27 18:37 | 41.77003 | 34.49268 | 33255 ft | 455 kts | 286° |
| 2026-04-27 18:37 | 41.78890 | 34.41195 | 33268 ft | 454 kts | 286° |
| 2026-04-27 18:38 | 41.80771 | 34.33114 | 33260 ft | 454 kts | 286° |
| 2026-04-27 18:38 | 41.82647 | 34.25030 | 33263 ft | 454 kts | 285° |
| 2026-04-27 18:39 | 41.84519 | 34.16936 | 33260 ft | 454 kts | 285° |
| 2026-04-27 18:39 | 41.86369 | 34.08903 | 33270 ft | 454 kts | 285° |
| 2026-04-27 18:40 | 41.88227 | 34.00809 | 33269 ft | 454 kts | 285° |
| 2026-04-27 18:40 | 41.90080 | 33.92708 | 33278 ft | 453 kts | 285° |
| 2026-04-27 18:41 | 41.91924 | 33.84610 | 33269 ft | 453 kts | 285° |
| 2026-04-27 18:41 | 41.93764 | 33.76512 | 33280 ft | 453 kts | 285° |
| 2026-04-27 18:42 | 41.95284 | 33.69784 | 33267 ft | 453 kts | 285° |
| 2026-04-27 18:42 | 41.97175 | 33.60237 | 33280 ft | 452 kts | 283° |
| 2026-04-27 18:43 | 41.98706 | 33.52037 | 33276 ft | 452 kts | 283° |
| 2026-04-27 18:43 | 42.00262 | 33.43829 | 33258 ft | 452 kts | 283° |
| 2026-04-27 18:44 | 42.01824 | 33.35657 | 33276 ft | 451 kts | 283° |
| 2026-04-27 18:44 | 42.03386 | 33.27454 | 33309 ft | 454 kts | 283° |
| 2026-04-27 18:45 | 42.04159 | 33.23382 | 33588 ft | 455 kts | 283° |
| 2026-04-27 18:45 | 42.04939 | 33.19260 | 34016 ft | 453 kts | 283° |
| 2026-04-27 18:45 | 42.05726 | 33.15102 | 34296 ft | 453 kts | 283° |
| 2026-04-27 18:45 | 42.06502 | 33.10988 | 34263 ft | 452 kts | 283° |
| 2026-04-27 18:46 | 42.08072 | 33.02889 | 34261 ft | 449 kts | 284° |
| 2026-04-27 18:46 | 42.09752 | 32.94799 | 34269 ft | 449 kts | 284° |
| 2026-04-27 18:47 | 42.11427 | 32.86700 | 34267 ft | 449 kts | 284° |
| 2026-04-27 18:47 | 42.13084 | 32.78583 | 34275 ft | 449 kts | 284° |
| 2026-04-27 18:48 | 42.14731 | 32.70456 | 34265 ft | 450 kts | 284° |
| 2026-04-27 18:48 | 42.16374 | 32.62326 | 34263 ft | 449 kts | 284° |
| 2026-04-27 18:49 | 42.18009 | 32.54193 | 34268 ft | 449 kts | 283° |
| 2026-04-27 18:49 | 42.19635 | 32.46055 | 34268 ft | 449 kts | 283° |
| 2026-04-27 18:50 | 42.21255 | 32.37916 | 34265 ft | 449 kts | 283° |
| 2026-04-27 18:50 | 42.22869 | 32.29776 | 34269 ft | 449 kts | 283° |
| 2026-04-27 18:51 | 42.24478 | 32.21634 | 34260 ft | 449 kts | 283° |
| 2026-04-27 18:51 | 42.26088 | 32.13479 | 34271 ft | 449 kts | 283° |
| 2026-04-27 18:52 | 42.27679 | 32.05372 | 34257 ft | 449 kts | 283° |
| 2026-04-27 18:53 | 42.30056 | 31.93150 | 34261 ft | 449 kts | 283° |
| 2026-04-27 18:53 | 42.31635 | 31.84993 | 34269 ft | 449 kts | 283° |
| 2026-04-27 18:54 | 42.33208 | 31.76831 | 34270 ft | 449 kts | 283° |
| 2026-04-27 18:54 | 42.34777 | 31.68662 | 34249 ft | 449 kts | 283° |
| 2026-04-27 18:55 | 42.36077 | 31.61865 | 34265 ft | 449 kts | 283° |
| 2026-04-27 18:55 | 42.37639 | 31.53671 | 34267 ft | 450 kts | 283° |
| 2026-04-27 18:56 | 42.39195 | 31.45470 | 34267 ft | 450 kts | 283° |
| 2026-04-27 18:56 | 42.40749 | 31.37243 | 34272 ft | 451 kts | 283° |
| 2026-04-27 18:57 | 42.42296 | 31.29021 | 34267 ft | 451 kts | 283° |
| 2026-04-27 18:57 | 42.43839 | 31.20783 | 34275 ft | 451 kts | 283° |
| 2026-04-27 18:58 | 42.45378 | 31.12538 | 34272 ft | 452 kts | 283° |
| 2026-04-27 18:58 | 42.46915 | 31.04276 | 34271 ft | 452 kts | 283° |
| 2026-04-27 18:59 | 42.48447 | 30.96021 | 34273 ft | 452 kts | 283° |
| 2026-04-27 18:59 | 42.49966 | 30.87800 | 34273 ft | 452 kts | 283° |
| 2026-04-27 19:00 | 42.51484 | 30.79547 | 34277 ft | 452 kts | 283° |
| 2026-04-27 19:00 | 42.52998 | 30.71281 | 34281 ft | 452 kts | 283° |
| 2026-04-27 19:01 | 42.54505 | 30.63013 | 34284 ft | 452 kts | 283° |
| 2026-04-27 19:01 | 42.56008 | 30.54733 | 34263 ft | 452 kts | 283° |
| 2026-04-27 19:02 | 42.57504 | 30.46456 | 34265 ft | 452 kts | 283° |
| 2026-04-27 19:02 | 42.58993 | 30.38178 | 34268 ft | 452 kts | 283° |
| 2026-04-27 19:03 | 42.60477 | 30.29897 | 34284 ft | 451 kts | 283° |
| 2026-04-27 19:03 | 42.62457 | 30.21809 | 34286 ft | 453 kts | 291° |
| 2026-04-27 19:04 | 42.64953 | 30.13946 | 34268 ft | 453 kts | 291° |
| 2026-04-27 19:04 | 42.67430 | 30.06077 | 34263 ft | 453 kts | 291° |
| 2026-04-27 19:05 | 42.69884 | 29.98193 | 34273 ft | 453 kts | 291° |
| 2026-04-27 19:05 | 42.72325 | 29.90297 | 34273 ft | 453 kts | 291° |
| 2026-04-27 19:06 | 42.74748 | 29.82433 | 34272 ft | 453 kts | 291° |
| 2026-04-27 19:06 | 42.77178 | 29.74527 | 34271 ft | 453 kts | 291° |
| 2026-04-27 19:07 | 42.79604 | 29.66609 | 34275 ft | 453 kts | 291° |
| 2026-04-27 19:07 | 42.82022 | 29.58694 | 34281 ft | 453 kts | 291° |
| 2026-04-27 19:08 | 42.84434 | 29.50773 | 34271 ft | 452 kts | 291° |
| 2026-04-27 19:08 | 42.86840 | 29.42851 | 34272 ft | 452 kts | 291° |
| 2026-04-27 19:09 | 42.89246 | 29.34902 | 34506 ft | 455 kts | 291° |
| 2026-04-27 19:09 | 42.90433 | 29.30974 | 34877 ft | 453 kts | 291° |
| 2026-04-27 19:09 | 42.91628 | 29.27012 | 35264 ft | 450 kts | 291° |
| 2026-04-27 19:09 | 42.92815 | 29.23068 | 35629 ft | 448 kts | 291° |
| 2026-04-27 19:10 | 42.93998 | 29.19135 | 35953 ft | 448 kts | 291° |
| 2026-04-27 19:10 | 42.95176 | 29.15210 | 36187 ft | 448 kts | 291° |
| 2026-04-27 19:10 | 42.96363 | 29.11247 | 36219 ft | 451 kts | 291° |
| 2026-04-27 19:11 | 42.98730 | 29.03331 | 36266 ft | 449 kts | 291° |
| 2026-04-27 19:11 | 43.01077 | 28.95457 | 36272 ft | 446 kts | 291° |
| 2026-04-27 19:12 | 43.03409 | 28.87615 | 36270 ft | 445 kts | 291° |
| 2026-04-27 19:12 | 43.05899 | 28.79893 | 36274 ft | 445 kts | 296° |
| 2026-04-27 19:13 | 43.09266 | 28.72770 | 36276 ft | 448 kts | 304° |
| 2026-04-27 19:13 | 43.12981 | 28.65920 | 36278 ft | 449 kts | 304° |
| 2026-04-27 19:14 | 43.16702 | 28.59035 | 36274 ft | 450 kts | 304° |
| 2026-04-27 19:14 | 43.20407 | 28.52120 | 36270 ft | 450 kts | 304° |
| 2026-04-27 19:15 | 43.24105 | 28.45181 | 36268 ft | 451 kts | 304° |
| 2026-04-27 19:15 | 43.27798 | 28.38229 | 36266 ft | 451 kts | 304° |
| 2026-04-27 19:16 | 43.31486 | 28.31272 | 36265 ft | 450 kts | 304° |
| 2026-04-27 19:16 | 43.35162 | 28.24321 | 36248 ft | 450 kts | 304° |
| 2026-04-27 19:17 | 43.38831 | 28.17369 | 36254 ft | 449 kts | 304° |
| 2026-04-27 19:17 | 43.42467 | 28.10463 | 36237 ft | 448 kts | 304° |
| 2026-04-27 19:18 | 43.46134 | 28.03479 | 36234 ft | 447 kts | 304° |
| 2026-04-27 19:18 | 43.49748 | 27.96583 | 36233 ft | 446 kts | 303° |
| 2026-04-27 19:19 | 43.53373 | 27.89647 | 36246 ft | 446 kts | 303° |
| 2026-04-27 19:19 | 43.56991 | 27.82709 | 36228 ft | 445 kts | 303° |
| 2026-04-27 19:20 | 43.60607 | 27.75759 | 36226 ft | 445 kts | 303° |
| 2026-04-27 19:20 | 43.64211 | 27.68814 | 36216 ft | 445 kts | 303° |
| 2026-04-27 19:21 | 43.67794 | 27.61895 | 36220 ft | 445 kts | 303° |
| 2026-04-27 19:21 | 43.71392 | 27.54929 | 36216 ft | 445 kts | 303° |
| 2026-04-27 19:22 | 43.74989 | 27.47950 | 36212 ft | 446 kts | 303° |
| 2026-04-27 19:22 | 43.78585 | 27.40956 | 36224 ft | 446 kts | 303° |
| 2026-04-27 19:23 | 43.82181 | 27.33944 | 36206 ft | 447 kts | 303° |
| 2026-04-27 19:23 | 43.85777 | 27.26916 | 36197 ft | 447 kts | 303° |
| 2026-04-27 19:24 | 43.89368 | 27.19881 | 36200 ft | 447 kts | 303° |
| 2026-04-27 19:24 | 43.92960 | 27.12826 | 36194 ft | 448 kts | 303° |
| 2026-04-27 19:25 | 43.96551 | 27.05757 | 36192 ft | 447 kts | 303° |
| 2026-04-27 19:25 | 44.00129 | 26.98695 | 36186 ft | 447 kts | 303° |
| 2026-04-27 19:26 | 44.03695 | 26.91642 | 36183 ft | 446 kts | 303° |
| 2026-04-27 19:26 | 44.07393 | 26.84713 | 36178 ft | 447 kts | 309° |
| 2026-04-27 19:27 | 44.11839 | 26.78644 | 36171 ft | 450 kts | 319° |
| 2026-04-27 19:27 | 44.16781 | 26.73280 | 36183 ft | 450 kts | 320° |
| 2026-04-27 19:28 | 44.21743 | 26.67960 | 36179 ft | 450 kts | 320° |
| 2026-04-27 19:28 | 44.26688 | 26.62613 | 36173 ft | 450 kts | 319° |
| 2026-04-27 19:29 | 44.31584 | 26.57279 | 36170 ft | 449 kts | 319° |
| 2026-04-27 19:29 | 44.36503 | 26.51897 | 36172 ft | 449 kts | 319° |
| 2026-04-27 19:30 | 44.41419 | 26.46505 | 36168 ft | 449 kts | 319° |
| 2026-04-27 19:30 | 44.46334 | 26.41103 | 36171 ft | 449 kts | 319° |
| 2026-04-27 19:31 | 44.51260 | 26.35678 | 36168 ft | 450 kts | 319° |
| 2026-04-27 19:31 | 44.56191 | 26.30235 | 36167 ft | 451 kts | 319° |
| 2026-04-27 19:32 | 44.61119 | 26.24784 | 36184 ft | 452 kts | 319° |
| 2026-04-27 19:32 | 44.66058 | 26.19309 | 36177 ft | 453 kts | 319° |
| 2026-04-27 19:33 | 44.71006 | 26.13810 | 36181 ft | 453 kts | 319° |
| 2026-04-27 19:33 | 44.75959 | 26.08295 | 36185 ft | 454 kts | 319° |
| 2026-04-27 19:34 | 44.80906 | 26.02775 | 36173 ft | 454 kts | 319° |
| 2026-04-27 19:34 | 44.85845 | 25.97250 | 36175 ft | 453 kts | 319° |
| 2026-04-27 19:35 | 44.90780 | 25.91717 | 36170 ft | 452 kts | 319° |
| 2026-04-27 19:35 | 44.95698 | 25.86191 | 36180 ft | 451 kts | 319° |
| 2026-04-27 19:36 | 45.00600 | 25.80670 | 36178 ft | 451 kts | 319° |
| 2026-04-27 19:36 | 45.05471 | 25.75172 | 36190 ft | 450 kts | 319° |
| 2026-04-27 19:37 | 45.10359 | 25.69642 | 36190 ft | 450 kts | 319° |
| 2026-04-27 19:37 | 45.15246 | 25.64101 | 36191 ft | 449 kts | 319° |
| 2026-04-27 19:38 | 45.20118 | 25.58564 | 36198 ft | 449 kts | 319° |
| 2026-04-27 19:38 | 45.24983 | 25.53023 | 36195 ft | 448 kts | 319° |
| 2026-04-27 19:39 | 45.29839 | 25.47479 | 36197 ft | 448 kts | 319° |
| 2026-04-27 19:39 | 45.34691 | 25.41929 | 36209 ft | 448 kts | 319° |
| 2026-04-27 19:40 | 45.38724 | 25.37304 | 36207 ft | 448 kts | 319° |
| 2026-04-27 19:40 | 45.43574 | 25.31731 | 36200 ft | 448 kts | 319° |
| 2026-04-27 19:41 | 45.48427 | 25.26143 | 36194 ft | 448 kts | 319° |
| 2026-04-27 19:41 | 45.53267 | 25.20557 | 36198 ft | 447 kts | 319° |
| 2026-04-27 19:42 | 45.58102 | 25.14963 | 36202 ft | 447 kts | 319° |
| 2026-04-27 19:42 | 45.62935 | 25.09359 | 36204 ft | 448 kts | 319° |
| 2026-04-27 19:43 | 45.67763 | 25.03749 | 36166 ft | 448 kts | 319° |
| 2026-04-27 19:43 | 45.72593 | 24.98123 | 36174 ft | 447 kts | 319° |
| 2026-04-27 19:44 | 45.77409 | 24.92500 | 36193 ft | 446 kts | 319° |
| 2026-04-27 19:44 | 45.82223 | 24.86867 | 36187 ft | 446 kts | 319° |
| 2026-04-27 19:45 | 45.87026 | 24.81234 | 36186 ft | 446 kts | 319° |
| 2026-04-27 19:45 | 45.91822 | 24.75595 | 36196 ft | 445 kts | 319° |
| 2026-04-27 19:46 | 45.96614 | 24.69949 | 36195 ft | 445 kts | 319° |
| 2026-04-27 19:46 | 46.01401 | 24.64295 | 36194 ft | 445 kts | 319° |
| 2026-04-27 19:47 | 46.06184 | 24.58633 | 36191 ft | 445 kts | 319° |
| 2026-04-27 19:47 | 46.10964 | 24.52961 | 36193 ft | 445 kts | 319° |
| 2026-04-27 19:48 | 46.15715 | 24.47311 | 36197 ft | 445 kts | 319° |
| 2026-04-27 19:48 | 46.20493 | 24.41615 | 36178 ft | 445 kts | 319° |
| 2026-04-27 19:49 | 46.25267 | 24.35911 | 36182 ft | 445 kts | 319° |
| 2026-04-27 19:49 | 46.30026 | 24.30212 | 36203 ft | 445 kts | 319° |
| 2026-04-27 19:50 | 46.34787 | 24.24497 | 36200 ft | 444 kts | 319° |
| 2026-04-27 19:50 | 46.39548 | 24.18769 | 36201 ft | 444 kts | 319° |
| 2026-04-27 19:51 | 46.44305 | 24.13031 | 36208 ft | 444 kts | 319° |
| 2026-04-27 19:51 | 46.49029 | 24.07321 | 36232 ft | 444 kts | 319° |
| 2026-04-27 19:52 | 46.53776 | 24.01568 | 36220 ft | 444 kts | 319° |
| 2026-04-27 19:52 | 46.58514 | 23.95814 | 36198 ft | 443 kts | 319° |
| 2026-04-27 19:53 | 46.65610 | 23.87171 | 36192 ft | 443 kts | 319° |
| 2026-04-27 19:53 | 46.70326 | 23.81409 | 36187 ft | 442 kts | 319° |
| 2026-04-27 19:54 | 46.75033 | 23.75644 | 36177 ft | 441 kts | 320° |
| 2026-04-27 19:54 | 46.79725 | 23.69884 | 36198 ft | 440 kts | 319° |
| 2026-04-27 19:55 | 46.84404 | 23.64128 | 36185 ft | 439 kts | 319° |
| 2026-04-27 19:55 | 46.89076 | 23.58365 | 36191 ft | 439 kts | 319° |
| 2026-04-27 19:56 | 46.93735 | 23.52605 | 36192 ft | 438 kts | 320° |
| 2026-04-27 19:56 | 46.98380 | 23.46849 | 36209 ft | 437 kts | 320° |
| 2026-04-27 19:57 | 47.03010 | 23.41099 | 36216 ft | 436 kts | 319° |
| 2026-04-27 19:57 | 47.07637 | 23.35338 | 36216 ft | 436 kts | 319° |
| 2026-04-27 19:58 | 47.12260 | 23.29569 | 36223 ft | 436 kts | 319° |
| 2026-04-27 19:58 | 47.16882 | 23.23787 | 36217 ft | 436 kts | 319° |
| 2026-04-27 19:59 | 47.21499 | 23.17997 | 36207 ft | 436 kts | 319° |
| 2026-04-27 19:59 | 47.26111 | 23.12201 | 36208 ft | 436 kts | 319° |
| 2026-04-27 20:00 | 47.30718 | 23.06397 | 36204 ft | 436 kts | 319° |
| 2026-04-27 20:00 | 47.35318 | 23.00588 | 36191 ft | 435 kts | 319° |
| 2026-04-27 20:01 | 47.39880 | 22.94812 | 36198 ft | 435 kts | 319° |
| 2026-04-27 20:01 | 47.44469 | 22.88990 | 36201 ft | 435 kts | 319° |
| 2026-04-27 20:02 | 47.49060 | 22.83150 | 36192 ft | 435 kts | 319° |
| 2026-04-27 20:02 | 47.53646 | 22.77303 | 36184 ft | 434 kts | 319° |
| 2026-04-27 20:03 | 47.58218 | 22.71460 | 36181 ft | 434 kts | 319° |
| 2026-04-27 20:03 | 47.62777 | 22.65619 | 36185 ft | 433 kts | 319° |
| 2026-04-27 20:04 | 47.67326 | 22.59777 | 36185 ft | 432 kts | 319° |
| 2026-04-27 20:04 | 47.71844 | 22.53960 | 36208 ft | 432 kts | 319° |
| 2026-04-27 20:05 | 47.76352 | 22.48145 | 36187 ft | 432 kts | 319° |
| 2026-04-27 20:05 | 47.81131 | 22.42572 | 36187 ft | 433 kts | 326° |
| 2026-04-27 20:06 | 47.86298 | 22.37957 | 36179 ft | 432 kts | 328° |
| 2026-04-27 20:06 | 47.91468 | 22.33357 | 36173 ft | 432 kts | 327° |